Time;durP1;ratioP1;P1;durP2;ratioP2;P2;SDS_P1;SDS_P2;PMS_P1;PMS_P2;Temp;Humidity;BMP_temperature;BMP_pressure;BME280_temperature;BME280_humidity;BME280_pressure;Samples;Min_cycle;Max_cycle;Signal;HPM_P1;HPM_P2
2023/04/20 00:00:14;;;;;;;;;;;;;;;;;;5050087;28;19924;-80
2023/04/20 00:02:44;;;;;;;;;;;;;;;;;;5062764;28;19939;-80
2023/04/20 00:05:13;;;;;;;;;;;;;;;;;;5081442;28;19928;-80
2023/04/20 00:07:40;;;;;;;;;;;;;;;;;;5082830;28;19924;-80
2023/04/20 00:10:11;;;;;;;;;;;;;;;;;;5084845;28;20407;-80
2023/04/20 00:12:38;;;;;;;;;;;;;;;;;;5053300;28;20301;-80
2023/04/20 00:15:08;;;;;;;;;;;;;;;;;;5056248;28;20301;-80
2023/04/20 00:17:35;;;;;;;;;;;;;;;;;;5080793;28;19951;-80
2023/04/20 00:20:02;;;;;;;;;;;;;;;;;;5066563;28;19924;-80
2023/04/20 00:22:29;;;;;;;;;;;;;;;;;;5081936;28;19924;-80
2023/04/20 00:24:58;;;;;;;;;;;;;;;;;;5058729;28;19931;-79
2023/04/20 00:27:27;;;;;;;;;;;;;;;;;;5082985;28;19928;-80
2023/04/20 00:29:56;;;;;;;;;;;;;;;;;;5066912;28;19925;-80
2023/04/20 00:32:27;;;;;;;;;;;;;;;;;;5071329;28;19935;-80
2023/04/20 00:34:54;;;;;;;;;;;;;;;;;;5059267;28;20400;-80
2023/04/20 00:37:24;;;;;;;;;;;;;;;;;;5049377;28;19924;-80
2023/04/20 00:39:54;;;;;;;;;;;;;;;;;;5081956;28;19924;-80
2023/04/20 00:42:25;;;;;;;;;;;;;;;;;;5053150;28;19924;-80
2023/04/20 00:44:53;;;;;;;;;;;;;;;;;;5046408;28;19925;-79
2023/04/20 00:47:22;;;;;;;;;;;;;;;;;;5049641;28;19924;-80
2023/04/20 00:49:49;;;;;;;;;;;;;;;;;;5042917;28;19924;-80
2023/04/20 00:52:18;;;;;;;;;;;;;;;;;;5061567;28;19928;-79
2023/04/20 00:54:45;;;;;;;;;;;;;;;;;;5072259;28;19924;-80
2023/04/20 00:57:13;;;;;;;;;;;;;;;;;;5091136;28;19924;-80
2023/04/20 00:59:45;;;;;;;;;;;;;;;;;;5063474;28;19932;-79
2023/04/20 01:02:17;;;;;;;;;;;;;;;;;;5070722;28;19931;-79
2023/04/20 01:04:46;;;;;;;;;;;;;;;;;;5069638;28;19928;-79
2023/04/20 01:07:13;;;;;;;;;;;;;;;;;;5064397;28;19932;-79
2023/04/20 01:09:41;;;;;;;;;;;;;;;;;;5045556;28;19931;-79
2023/04/20 01:12:09;;;;;;;;;;;;;;;;;;5070504;28;19924;-80
2023/04/20 01:14:37;;;;;;;;;;;;;;;;;;5063535;28;19924;-80
2023/04/20 01:17:04;;;;;;;;;;;;;;;;;;5072699;28;19925;-80
2023/04/20 01:19:33;;;;;;;;;;;;;;;;;;5064509;28;19932;-80
2023/04/20 01:22:04;;;;;;;;;;;;;;;;;;5054447;28;19924;-80
2023/04/20 01:24:33;;;;;;;;;;;;;;;;;;5047972;28;20386;-79
2023/04/20 01:27:00;;;;;;;;;;;;;;;;;;5055500;28;19924;-80
2023/04/20 01:29:30;;;;;;;;;;;;;;;;;;5067644;28;19924;-79
2023/04/20 01:31:59;;;;;;;;;;;;;;;;;;5057032;28;20301;-80
2023/04/20 01:34:26;;;;;;;;;;;;;;;;;;5086239;28;19935;-79
2023/04/20 01:36:54;;;;;;;;;;;;;;;;;;5071727;28;19931;-79
2023/04/20 01:39:21;;;;;;;;;;;;;;;;;;5069410;28;19924;-80
2023/04/20 01:41:49;;;;;;;;;;;;;;;;;;5049205;28;19928;-79
2023/04/20 01:44:17;;;;;;;;;;;;;;;;;;5056622;28;20395;-80
2023/04/20 01:46:44;;;;;;;;;;;;;;;;;;5054144;28;19924;-80
2023/04/20 01:49:13;;;;;;;;;;;;;;;;;;5069839;28;20309;-80
2023/04/20 01:51:40;;;;;;;;;;;;;;;;;;5065115;28;19925;-80
2023/04/20 01:54:09;;;;;;;;;;;;;;;;;;5074575;28;20312;-80
2023/04/20 01:56:36;;;;;;;;;;;;;;;;;;5047600;28;19936;-80
2023/04/20 01:59:04;;;;;;;;;;;;;;;;;;5070132;28;19924;-80
2023/04/20 02:01:34;;;;;;;;;;;;;;;;;;5074297;28;20285;-80
2023/04/20 02:04:01;;;;;;;;;;;;;;;;;;5074914;28;20431;-80
2023/04/20 02:09:15;;;;;;;;;;;;;;;;;;4989348;28;20430;-79
2023/04/20 02:11:45;;;;;;;;;;;;;;;;;;4982036;28;19933;-79
2023/04/20 02:14:13;;;;;;;;;;;;;;;;;;5028800;28;19926;-78
2023/04/20 02:16:42;;;;;;;;;;;;;;;;;;4993108;28;19933;-78
2023/04/20 02:19:09;;;;;;;;;;;;;;;;;;4992055;28;19926;-78
2023/04/20 02:21:50;;;;;;;;;;;;;;;;;;4995937;28;20427;-78
2023/04/20 02:24:20;;;;;;;;;;;;;;;;;;4922807;29;20396;-80
2023/04/20 02:26:48;;;;;;;;;;;;;;;;;;4930425;29;19930;-79
2023/04/20 02:29:16;;;;;;;;;;;;;;;;;;4936747;28;19927;-79
2023/04/20 02:31:45;;;;;;;;;;;;;;;;;;4924830;29;19934;-79
2023/04/20 02:34:16;;;;;;;;;;;;;;;;;;4941013;29;19926;-79
2023/04/20 02:36:43;;;;;;;;;;;;;;;;;;4910939;29;19934;-79
2023/04/20 02:39:13;;;;;;;;;;;;;;;;;;4924523;29;19942;-79
2023/04/20 02:41:40;;;;;;;;;;;;;;;;;;4918263;29;19932;-79
2023/04/20 02:44:09;;;;;;;;;;;;;;;;;;4908876;29;19946;-79
2023/04/20 02:46:38;;;;;;;;;;;;;;;;;;4934586;29;19934;-79
2023/04/20 02:49:06;;;;;;;;;;;;;;;;;;4911787;29;20292;-79
2023/04/20 02:51:37;;;;;;;;;;;;;;;;;;4910297;29;19927;-79
2023/04/20 02:54:04;;;;;;;;;;;;;;;;;;4935849;29;19927;-79
2023/04/20 02:56:34;;;;;;;;;;;;;;;;;;4925834;29;19927;-79
2023/04/20 02:59:09;;;;;;;;;;;;;;;;;;4939647;29;20408;-79
2023/04/20 03:01:46;;;;;;;;;;;;;;;;;;4925825;29;19927;-79
2023/04/20 03:04:16;;;;;;;;;;;;;;;;;;4907165;29;19938;-79
2023/04/20 03:06:54;;;;;;;;;;;;;;;;;;4956243;28;19938;-79
2023/04/20 03:09:27;;;;;;;;;;;;;;;;;;4954515;28;19927;-79
2023/04/20 03:12:02;;;;;;;;;;;;;;;;;;4924815;29;19927;-79
2023/04/20 03:14:57;;;;;;;;;;;;;;;;;;4920058;29;19935;-79
2023/04/20 03:17:36;;;;;;;;;;;;;;;;;;4940756;29;19927;-79
2023/04/20 03:20:07;;;;;;;;;;;;;;;;;;4935911;29;19927;-79
2023/04/20 03:22:37;;;;;;;;;;;;;;;;;;4922405;29;19935;-80
2023/04/20 03:25:08;;;;;;;;;;;;;;;;;;4930795;29;19934;-79
2023/04/20 03:27:50;;;;;;;;;;;;;;;;;;4904764;29;19931;-79
2023/04/20 03:30:17;;;;;;;;;;;;;;;;;;4905635;29;19934;-79
2023/04/20 03:32:49;;;;;;;;;;;;;;;;;;4922435;29;19927;-79
2023/04/20 03:35:19;;;;;;;;;;;;;;;;;;4928116;29;19926;-79
2023/04/20 03:37:49;;;;;;;;;;;;;;;;;;4916060;29;19950;-80
2023/04/20 03:40:16;;;;;;;;;;;;;;;;;;4929016;29;19935;-79
2023/04/20 03:42:45;;;;;;;;;;;;;;;;;;4941368;29;20386;-79
2023/04/20 03:45:12;;;;;;;;;;;;;;;;;;4923002;29;20312;-78
2023/04/20 03:47:45;;;;;;;;;;;;;;;;;;4924616;29;19927;-80
2023/04/20 03:50:16;;;;;;;;;;;;;;;;;;4919170;29;19927;-79
2023/04/20 03:52:43;;;;;;;;;;;;;;;;;;4921495;29;19927;-80
2023/04/20 03:55:11;;;;;;;;;;;;;;;;;;4933304;29;19934;-81
2023/04/20 03:57:44;;;;;;;;;;;;;;;;;;4935926;29;19934;-81
2023/04/20 04:00:12;;;;;;;;;;;;;;;;;;4936848;29;19927;-81
2023/04/20 04:02:48;;;;;;;;;;;;;;;;;;4923052;29;19935;-81
2023/04/20 04:05:24;;;;;;;;;;;;;;;;;;4902721;29;20300;-81
2023/04/20 04:07:51;;;;;;;;;;;;;;;;;;4935566;29;20008;-81
2023/04/20 04:10:18;;;;;;;;;;;;;;;;;;4904547;29;19927;-81
2023/04/20 04:12:46;;;;;;;;;;;;;;;;;;4904212;29;19928;-81
2023/04/20 04:15:13;;;;;;;;;;;;;;;;;;4950968;28;19927;-81
2023/04/20 04:17:49;;;;;;;;;;;;;;;;;;4893416;29;19935;-81
2023/04/20 04:20:19;;;;;;;;;;;;;;;;;;4953043;28;19927;-81
2023/04/20 04:22:47;;;;;;;;;;;;;;;;;;4935751;29;19935;-81
2023/04/20 04:25:49;;;;;;;;;;;;;;;;;;4927481;29;20101;-80
2023/04/20 04:28:22;;;;;;;;;;;;;;;;;;4923501;29;19927;-80
2023/04/20 04:31:00;;;;;;;;;;;;;;;;;;4964947;28;19934;-80
2023/04/20 04:33:27;;;;;;;;;;;;;;;;;;4917535;29;19927;-80
2023/04/20 04:35:55;;;;;;;;;;;;;;;;;;4905913;29;19939;-80
2023/04/20 04:38:23;;;;;;;;;;;;;;;;;;4917690;29;19950;-79
2023/04/20 04:40:53;;;;;;;;;;;;;;;;;;4908778;29;19927;-79
2023/04/20 04:43:23;;;;;;;;;;;;;;;;;;4927595;29;19947;-79
2023/04/20 04:46:08;;;;;;;;;;;;;;;;;;4928804;29;19927;-80
2023/04/20 04:48:36;;;;;;;;;;;;;;;;;;4956689;28;19927;-80
2023/04/20 04:51:04;;;;;;;;;;;;;;;;;;4899958;29;19934;-80
2023/04/20 04:53:33;;;;;;;;;;;;;;;;;;4908286;29;19949;-80
2023/04/20 04:56:00;;;;;;;;;;;;;;;;;;4959770;28;19934;-80
2023/04/20 04:58:27;;;;;;;;;;;;;;;;;;4946484;28;19927;-81
2023/04/20 05:00:56;;;;;;;;;;;;;;;;;;4916817;29;20386;-81
2023/04/20 05:03:23;;;;;;;;;;;;;;;;;;4953343;28;19927;-81
2023/04/20 05:05:52;;;;;;;;;;;;;;;;;;4922544;29;19927;-81
2023/04/20 05:08:20;;;;;;;;;;;;;;;;;;4913678;29;19954;-81
2023/04/20 05:10:48;;;;;;;;;;;;;;;;;;4949049;28;20289;-81
2023/04/20 05:13:15;;;;;;;;;;;;;;;;;;4909241;29;19927;-81
2023/04/20 05:15:43;;;;;;;;;;;;;;;;;;4921246;29;19934;-81
2023/04/20 05:18:10;;;;;;;;;;;;;;;;;;4947884;28;19950;-81
2023/04/20 05:20:37;;;;;;;;;;;;;;;;;;4905273;29;19936;-80
2023/04/20 05:23:06;;;;;;;;;;;;;;;;;;4908082;29;19927;-80
2023/04/20 05:25:36;;;;;;;;;;;;;;;;;;4906653;29;19927;-79
2023/04/20 05:28:06;;;;;;;;;;;;;;;;;;4907264;29;19928;-80
2023/04/20 05:30:33;;;;;;;;;;;;;;;;;;4907135;29;19927;-80
2023/04/20 05:33:03;;;;;;;;;;;;;;;;;;4929026;29;19938;-80
2023/04/20 05:35:32;;;;;;;;;;;;;;;;;;4924249;29;19950;-80
2023/04/20 05:38:02;;;;;;;;;;;;;;;;;;4934057;29;19928;-80
2023/04/20 05:40:29;;;;;;;;;;;;;;;;;;4939376;29;19941;-80
2023/04/20 05:42:56;;;;;;;;;;;;;;;;;;4926905;29;19931;-80
2023/04/20 05:45:27;;;;;;;;;;;;;;;;;;4926780;29;20274;-80
2023/04/20 05:47:54;;;;;;;;;;;;;;;;;;4937428;29;19947;-81
2023/04/20 05:50:21;;;;;;;;;;;;;;;;;;4925097;29;19934;-80
2023/04/20 05:52:48;;;;;;;;;;;;;;;;;;4927900;29;20272;-80
2023/04/20 05:55:15;;;;;;;;;;;;;;;;;;4937687;29;19927;-80
2023/04/20 05:57:42;;;;;;;;;;;;;;;;;;4929962;29;19931;-80
2023/04/20 06:00:10;;;;;;;;;;;;;;;;;;4921445;29;19928;-80
2023/04/20 06:02:41;;;;;;;;;;;;;;;;;;4922096;29;19928;-80
2023/04/20 06:05:09;;;;;;;;;;;;;;;;;;4902699;29;19931;-80
2023/04/20 06:07:36;;;;;;;;;;;;;;;;;;4914924;29;20378;-79
2023/04/20 06:10:03;;;;;;;;;;;;;;;;;;4923064;29;19927;-79
2023/04/20 06:12:30;;;;;;;;;;;;;;;;;;4951928;29;19950;-79
2023/04/20 06:14:57;;;;;;;;;;;;;;;;;;4897554;29;19931;-80
2023/04/20 06:17:24;;;;;;;;;;;;;;;;;;4920032;29;20304;-80
2023/04/20 06:19:52;;;;;;;;;;;;;;;;;;4913018;29;19931;-80
2023/04/20 06:22:19;;;;;;;;;;;;;;;;;;4905707;29;19927;-81
2023/04/20 06:24:49;;;;;;;;;;;;;;;;;;4952222;28;19927;-80
2023/04/20 06:27:16;;;;;;;;;;;;;;;;;;4925129;29;20401;-80
2023/04/20 06:29:43;;;;;;;;;;;;;;;;;;4941843;29;20331;-81
2023/04/20 06:32:10;;;;;;;;;;;;;;;;;;4952824;28;19934;-81
2023/04/20 06:34:40;;;;;;;;;;;;;;;;;;4956356;28;19934;-81
2023/04/20 06:37:08;;;;;;;;;;;;;;;;;;4940104;29;19927;-80
2023/04/20 06:39:40;;;;;;;;;;;;;;;;;;4937239;29;19927;-80
2023/04/20 06:42:10;;;;;;;;;;;;;;;;;;4923139;29;20393;-80
2023/04/20 06:44:37;;;;;;;;;;;;;;;;;;4945102;29;19930;-80
2023/04/20 06:47:06;;;;;;;;;;;;;;;;;;4960180;28;19927;-80
2023/04/20 06:49:38;;;;;;;;;;;;;;;;;;4920877;29;19934;-80
2023/04/20 06:52:09;;;;;;;;;;;;;;;;;;4936921;29;19927;-80
2023/04/20 06:54:38;;;;;;;;;;;;;;;;;;4936394;29;19953;-81
2023/04/20 06:57:05;;;;;;;;;;;;;;;;;;4953817;28;20624;-81
2023/04/20 06:59:32;;;;;;;;;;;;;;;;;;4936927;29;19931;-82
2023/04/20 07:01:59;;;;;;;;;;;;;;;;;;4921642;29;19927;-81
2023/04/20 07:04:28;;;;;;;;;;;;;;;;;;4905530;29;19928;-81
2023/04/20 07:06:58;;;;;;;;;;;;;;;;;;4952838;28;19927;-81
2023/04/20 07:09:26;;;;;;;;;;;;;;;;;;4920072;29;19928;-81
2023/04/20 07:11:56;;;;;;;;;;;;;;;;;;4938679;29;19928;-81
2023/04/20 07:14:25;;;;;;;;;;;;;;;;;;4920915;29;19927;-81
2023/04/20 07:16:55;;;;;;;;;;;;;;;;;;4923117;29;19931;-82
2023/04/20 07:19:27;;;;;;;;;;;;;;;;;;4924719;29;19927;-80
2023/04/20 07:21:54;;;;;;;;;;;;;;;;;;4939818;29;19935;-81
2023/04/20 07:24:21;;;;;;;;;;;;;;;;;;4922145;29;19928;-80
2023/04/20 07:26:50;;;;;;;;;;;;;;;;;;4957459;28;19927;-80
2023/04/20 07:29:17;;;;;;;;;;;;;;;;;;4908578;29;19928;-80
2023/04/20 07:31:44;;;;;;;;;;;;;;;;;;4944687;29;19927;-80
2023/04/20 07:34:11;;;;;;;;;;;;;;;;;;4925581;29;19932;-80
2023/04/20 07:36:38;;;;;;;;;;;;;;;;;;4944366;29;19927;-80
2023/04/20 07:39:05;;;;;;;;;;;;;;;;;;4952023;29;19937;-80
2023/04/20 07:41:35;;;;;;;;;;;;;;;;;;4922094;29;19927;-80
2023/04/20 07:44:06;;;;;;;;;;;;;;;;;;4946495;29;19927;-80
2023/04/20 07:46:33;;;;;;;;;;;;;;;;;;4919511;29;19935;-80
2023/04/20 07:49:02;;;;;;;;;;;;;;;;;;4917840;29;19927;-80
2023/04/20 07:51:31;;;;;;;;;;;;;;;;;;4927173;29;19931;-80
2023/04/20 07:54:00;;;;;;;;;;;;;;;;;;4921834;29;19935;-80
2023/04/20 07:56:27;;;;;;;;;;;;;;;;;;4931950;29;19927;-80
2023/04/20 07:58:54;;;;;;;;;;;;;;;;;;4953450;28;19931;-80
2023/04/20 08:01:25;;;;;;;;;;;;;;;;;;4927770;29;20301;-81
2023/04/20 08:03:54;;;;;;;;;;;;;;;;;;4934191;29;19926;-81
2023/04/20 08:06:21;;;;;;;;;;;;;;;;;;4950450;28;19934;-81
2023/04/20 08:08:48;;;;;;;;;;;;;;;;;;4929307;29;19927;-81
2023/04/20 08:11:15;;;;;;;;;;;;;;;;;;4930540;29;19928;-81
2023/04/20 08:13:42;;;;;;;;;;;;;;;;;;4934721;29;19927;-80
2023/04/20 08:16:14;;;;;;;;;;;;;;;;;;4956754;28;19934;-80
2023/04/20 08:18:42;;;;;;;;;;;;;;;;;;4953607;28;20282;-80
2023/04/20 08:21:14;;;;;;;;;;;;;;;;;;4926021;29;20200;-80
2023/04/20 11:39:16;;;;;;;;;;;;;;;;;;5065472;22;19929;-80
2023/04/20 11:41:44;;;;;;;;;;;;;;;;;;5072946;28;19928;-79
2023/04/20 11:44:11;;;;;;;;;;;;;;;;;;5074091;28;20303;-79
2023/04/20 11:46:38;;;;;;;;;;;;;;;;;;5040264;28;19931;-79
2023/04/20 11:49:08;;;;;;;;;;;;;;;;;;5046217;28;19932;-79
2023/04/20 11:51:37;;;;;;;;;;;;;;;;;;5036500;28;19935;-79
2023/04/20 11:54:04;;;;;;;;;;;;;;;;;;5030126;28;19925;-79
2023/04/20 11:56:33;;;;;;;;;;;;;;;;;;5022665;28;19925;-79
2023/04/20 11:59:05;;;;;;;;;;;;;;;;;;5025767;28;19936;-79
2023/04/20 12:01:32;;;;;;;;;;;;;;;;;;5020676;28;20325;-79
2023/04/20 12:04:01;;;;;;;;;;;;;;;;;;5035154;28;19925;-79
2023/04/20 12:06:28;;;;;;;;;;;;;;;;;;5029536;28;19925;-79
2023/04/20 12:08:57;;;;;;;;;;;;;;;;;;5048057;28;19925;-79
2023/04/20 12:11:26;;;;;;;;;;;;;;;;;;5033075;28;19924;-79
2023/04/20 12:13:54;;;;;;;;;;;;;;;;;;5066309;28;19925;-79
2023/04/20 12:16:21;;;;;;;;;;;;;;;;;;5034946;28;20299;-79
2023/04/20 12:18:51;;;;;;;;;;;;;;;;;;5023750;28;20306;-79
2023/04/20 12:21:18;;;;;;;;;;;;;;;;;;5040229;28;19925;-79
2023/04/20 12:23:48;;;;;;;;;;;;;;;;;;5015489;28;19932;-79
2023/04/20 12:26:15;;;;;;;;;;;;;;;;;;5020336;28;19933;-79
2023/04/20 12:28:43;;;;;;;;;;;;;;;;;;5014520;28;19924;-79
2023/04/20 12:31:12;;;;;;;;;;;;;;;;;;5023062;28;19931;-79
2023/04/20 12:33:42;;;;;;;;;;;;;;;;;;5031999;28;19925;-79
2023/04/20 12:36:09;;;;;;;;;;;;;;;;;;5039808;28;19925;-79
2023/04/20 12:38:38;;;;;;;;;;;;;;;;;;5020116;28;19925;-79
2023/04/20 12:41:05;;;;;;;;;;;;;;;;;;5019370;28;20291;-79
2023/04/20 12:43:32;;;;;;;;;;;;;;;;;;5035509;28;19939;-79
2023/04/20 12:45:59;;;;;;;;;;;;;;;;;;5061824;28;19929;-80
2023/04/20 12:59:47;;;;;;;;;;;;;;;;;;5184256;22;20279;-79
2023/04/20 13:02:14;;;;;;;;;;;;;;;;;;5085897;28;19924;-79
2023/04/20 13:04:41;;;;;;;;;;;;;;;;;;5051176;28;19928;-78
2023/04/20 13:07:08;;;;;;;;;;;;;;;;;;5076807;28;19931;-79
2023/04/20 13:09:35;;;;;;;;;;;;;;;;;;5050595;28;19924;-79
2023/04/20 13:12:03;;;;;;;;;;;;;;;;;;5066148;28;19924;-79
2023/04/20 13:14:30;;;;;;;;;;;;;;;;;;5044604;28;19925;-79
2023/04/20 13:17:00;;;;;;;;;;;;;;;;;;5067021;28;19929;-79
2023/04/20 13:19:27;;;;;;;;;;;;;;;;;;5034759;28;19931;-79
2023/04/20 13:21:55;;;;;;;;;;;;;;;;;;5057332;28;20400;-79
2023/04/20 13:24:22;;;;;;;;;;;;;;;;;;5059212;28;19947;-79
2023/04/20 13:26:50;;;;;;;;;;;;;;;;;;5046981;28;19925;-79
2023/04/20 13:29:17;;;;;;;;;;;;;;;;;;5064923;28;20306;-79
2023/04/20 13:31:46;;;;;;;;;;;;;;;;;;5023113;28;19925;-79
2023/04/20 13:34:14;;;;;;;;;;;;;;;;;;5033655;28;20390;-79
2023/04/20 13:36:41;;;;;;;;;;;;;;;;;;5039456;28;19951;-79
2023/04/20 13:39:09;;;;;;;;;;;;;;;;;;5044352;28;19924;-79
2023/04/20 13:41:36;;;;;;;;;;;;;;;;;;5055086;28;19925;-79
2023/04/20 13:44:03;;;;;;;;;;;;;;;;;;5073027;28;19924;-79
2023/04/20 13:46:32;;;;;;;;;;;;;;;;;;5073638;28;19924;-79
2023/04/20 13:48:59;;;;;;;;;;;;;;;;;;5090122;28;19933;-79
2023/04/20 13:51:27;;;;;;;;;;;;;;;;;;5055758;28;19935;-79
2023/04/20 13:53:55;;;;;;;;;;;;;;;;;;5072035;28;19935;-79
2023/04/20 13:56:22;;;;;;;;;;;;;;;;;;5074430;28;19929;-79
2023/04/20 13:58:51;;;;;;;;;;;;;;;;;;5065693;28;19925;-79
2023/04/20 14:01:18;;;;;;;;;;;;;;;;;;5092324;28;19924;-79
2023/04/20 14:03:45;;;;;;;;;;;;;;;;;;5070737;28;19935;-79
2023/04/20 14:06:12;;;;;;;;;;;;;;;;;;5053445;28;19928;-79
2023/04/20 14:08:40;;;;;;;;;;;;;;;;;;5091883;28;19925;-80
2023/04/20 14:11:08;;;;;;;;;;;;;;;;;;5090397;28;19946;-79
2023/04/20 14:13:35;;;;;;;;;;;;;;;;;;5088834;28;19960;-79
2023/04/20 14:16:08;;;;;;;;;;;;;;;;;;5091043;28;19928;-80
2023/04/20 14:18:56;;;;;;;;;;;;;;;;;;5057174;28;19928;-80
2023/04/20 14:21:24;;;;;;;;;;;;;;;;;;5057983;28;19932;-80
2023/04/20 14:23:53;;;;;;;;;;;;;;;;;;5052936;23;19931;-79
2023/04/20 14:26:23;;;;;;;;;;;;;;;;;;5024073;28;19929;-79
2023/04/20 14:28:51;;;;;;;;;;;;;;;;;;5041046;28;19925;-79
2023/04/20 14:31:18;;;;;;;;;;;;;;;;;;5019917;28;19925;-79
2023/04/20 14:33:45;;;;;;;;;;;;;;;;;;5018430;28;19937;-80
2023/04/20 14:36:14;;;;;;;;;;;;;;;;;;5021413;28;19932;-79
2023/04/20 14:38:44;;;;;;;;;;;;;;;;;;5022701;28;19932;-79
2023/04/20 14:41:17;;;;;;;;;;;;;;;;;;5023473;28;19935;-79
2023/04/20 14:43:44;;;;;;;;;;;;;;;;;;5026244;28;19925;-79
2023/04/20 14:46:11;;;;;;;;;;;;;;;;;;5030552;28;19932;-80
2023/04/20 14:48:39;;;;;;;;;;;;;;;;;;5033016;28;19925;-80
2023/04/20 14:51:09;;;;;;;;;;;;;;;;;;5039674;28;20298;-78
2023/04/20 14:53:39;;;;;;;;;;;;;;;;;;5005881;28;20283;-80
2023/04/20 14:56:06;;;;;;;;;;;;;;;;;;5045270;28;19933;-80
2023/04/20 14:58:36;;;;;;;;;;;;;;;;;;5027049;28;19925;-80
2023/04/20 15:01:03;;;;;;;;;;;;;;;;;;5032903;28;19936;-80
2023/04/20 15:03:30;;;;;;;;;;;;;;;;;;5045608;28;19926;-80
2023/04/20 15:05:59;;;;;;;;;;;;;;;;;;5042820;28;19932;-78
2023/04/20 15:08:26;;;;;;;;;;;;;;;;;;5032929;28;19926;-79
2023/04/20 15:10:55;;;;;;;;;;;;;;;;;;5009091;28;19925;-78
2023/04/20 15:13:23;;;;;;;;;;;;;;;;;;5002087;28;19948;-79
2023/04/20 15:15:52;;;;;;;;;;;;;;;;;;5009964;28;19926;-79
2023/04/20 15:18:21;;;;;;;;;;;;;;;;;;5034591;28;19929;-79
2023/04/20 15:20:49;;;;;;;;;;;;;;;;;;5023501;28;20329;-79
2023/04/20 15:23:16;;;;;;;;;;;;;;;;;;5012257;28;19933;-79
2023/04/20 15:25:43;;;;;;;;;;;;;;;;;;5032130;28;19932;-79
2023/04/20 15:28:13;;;;;;;;;;;;;;;;;;5025873;28;19925;-80
2023/04/20 15:30:40;;;;;;;;;;;;;;;;;;5014472;28;19925;-80
2023/04/20 15:33:08;;;;;;;;;;;;;;;;;;5027991;28;19925;-80
2023/04/20 15:35:35;;;;;;;;;;;;;;;;;;5016331;28;19925;-78
2023/04/20 15:38:02;;;;;;;;;;;;;;;;;;5013400;28;19925;-79
2023/04/20 15:40:29;;;;;;;;;;;;;;;;;;5001747;28;20038;-79
2023/04/20 15:42:56;;;;;;;;;;;;;;;;;;5008977;28;19933;-79
2023/04/20 15:45:23;;;;;;;;;;;;;;;;;;5030502;28;19925;-79
2023/04/20 15:47:54;;;;;;;;;;;;;;;;;;5008498;28;19925;-80
2023/04/20 15:50:23;;;;;;;;;;;;;;;;;;5031386;28;19925;-79
2023/04/20 15:52:51;;;;;;;;;;;;;;;;;;5006308;28;19925;-79
2023/04/20 15:55:19;;;;;;;;;;;;;;;;;;5007224;28;19925;-79
2023/04/20 15:57:46;;;;;;;;;;;;;;;;;;5027454;28;19925;-79
2023/04/20 16:00:13;;;;;;;;;;;;;;;;;;5019661;28;19925;-78
2023/04/20 16:02:40;;;;;;;;;;;;;;;;;;5022543;28;19926;-78
2023/04/20 16:05:10;;;;;;;;;;;;;;;;;;5031428;28;20386;-77
2023/04/20 16:07:39;;;;;;;;;;;;;;;;;;4993552;28;20326;-78
2023/04/20 16:10:07;;;;;;;;;;;;;;;;;;5018049;28;19926;-79
2023/04/20 16:12:34;;;;;;;;;;;;;;;;;;4994882;28;20382;-78
2023/04/20 16:15:02;;;;;;;;;;;;;;;;;;5020975;28;19925;-78
2023/04/20 16:17:29;;;;;;;;;;;;;;;;;;4996972;28;19925;-78
2023/04/20 16:19:56;;;;;;;;;;;;;;;;;;4994972;28;19929;-78
2023/04/20 16:22:26;;;;;;;;;;;;;;;;;;4993524;28;19925;-78
2023/04/20 16:24:54;;;;;;;;;;;;;;;;;;5005171;28;19929;-79
2023/04/20 16:27:26;;;;;;;;;;;;;;;;;;4998372;28;19932;-78
2023/04/20 16:29:55;;;;;;;;;;;;;;;;;;4994964;28;19936;-78
2023/04/20 16:32:22;;;;;;;;;;;;;;;;;;4996616;28;19925;-78
2023/04/20 16:34:52;;;;;;;;;;;;;;;;;;5017302;28;19932;-79
2023/04/20 16:37:31;;;;;;;;;;;;;;;;;;5008184;28;19930;-79
2023/04/20 16:39:59;;;;;;;;;;;;;;;;;;5029277;28;19936;-79
2023/04/20 16:42:26;;;;;;;;;;;;;;;;;;5004898;28;20383;-78
2023/04/20 16:44:55;;;;;;;;;;;;;;;;;;5021375;28;19952;-78
2023/04/20 16:47:22;;;;;;;;;;;;;;;;;;4989510;28;19925;-78
2023/04/20 16:49:51;;;;;;;;;;;;;;;;;;5028633;28;19925;-78
2023/04/20 16:52:18;;;;;;;;;;;;;;;;;;5014112;28;19948;-78
2023/04/20 16:54:45;;;;;;;;;;;;;;;;;;5015380;28;19936;-78
2023/04/20 16:57:16;;;;;;;;;;;;;;;;;;5012168;28;19925;-80
2023/04/20 16:59:43;;;;;;;;;;;;;;;;;;5026018;28;19929;-80
2023/04/20 17:02:12;;;;;;;;;;;;;;;;;;5032503;28;19933;-80
2023/04/20 17:04:39;;;;;;;;;;;;;;;;;;5041567;28;19932;-80
2023/04/20 17:07:06;;;;;;;;;;;;;;;;;;5024657;28;20302;-79
2023/04/20 17:09:34;;;;;;;;;;;;;;;;;;5025424;28;19925;-79
2023/04/20 17:12:01;;;;;;;;;;;;;;;;;;5021045;28;19926;-80
2023/04/20 17:14:31;;;;;;;;;;;;;;;;;;5006266;28;19936;-78
2023/04/20 17:17:00;;;;;;;;;;;;;;;;;;5010710;28;19933;-80
2023/04/20 17:19:29;;;;;;;;;;;;;;;;;;5044636;28;20402;-79
2023/04/20 17:21:57;;;;;;;;;;;;;;;;;;5038514;28;19929;-79
2023/04/20 17:24:24;;;;;;;;;;;;;;;;;;5028310;28;19933;-79
2023/04/20 17:26:53;;;;;;;;;;;;;;;;;;5044888;28;19937;-80
2023/04/20 17:29:20;;;;;;;;;;;;;;;;;;5025894;28;19933;-79
2023/04/20 17:31:51;;;;;;;;;;;;;;;;;;5016935;28;19925;-79
2023/04/20 17:34:18;;;;;;;;;;;;;;;;;;5033014;28;19929;-79
2023/04/20 17:36:45;;;;;;;;;;;;;;;;;;4999894;28;19936;-79
2023/04/20 17:39:14;;;;;;;;;;;;;;;;;;5029935;28;19932;-79
2023/04/20 17:41:41;;;;;;;;;;;;;;;;;;5028233;28;19926;-79
2023/04/20 17:44:08;;;;;;;;;;;;;;;;;;5034759;28;19941;-79
2023/04/20 17:46:37;;;;;;;;;;;;;;;;;;5008980;28;19926;-79
2023/04/20 17:49:05;;;;;;;;;;;;;;;;;;5014557;28;19925;-79
2023/04/20 17:51:32;;;;;;;;;;;;;;;;;;4996577;28;19948;-79
2023/04/20 17:53:59;;;;;;;;;;;;;;;;;;5028761;28;20383;-79
2023/04/20 17:56:27;;;;;;;;;;;;;;;;;;5002868;28;19925;-80
2023/04/20 17:58:58;;;;;;;;;;;;;;;;;;5009444;28;20387;-80
2023/04/20 18:01:26;;;;;;;;;;;;;;;;;;5041399;28;19940;-82
2023/04/20 18:03:56;;;;;;;;;;;;;;;;;;5028408;28;19929;-80
2023/04/20 18:06:28;;;;;;;;;;;;;;;;;;5044399;28;20398;-80
2023/04/20 18:08:57;;;;;;;;;;;;;;;;;;5043813;28;19929;-80
2023/04/20 18:11:31;;;;;;;;;;;;;;;;;;5048290;28;19940;-80
2023/04/20 18:16:55;;;;;;;;;;;;;;;;;;5034224;28;19925;-80
2023/04/20 18:19:26;;;;;;;;;;;;;;;;;;5024496;28;19932;-80
2023/04/20 18:21:57;;;;;;;;;;;;;;;;;;5024388;28;19926;-79
2023/04/20 18:51:28;;;;;;;;;;;;;;;;;;5025380;28;19932;-78
2023/04/20 18:54:05;;;;;;;;;;;;;;;;;;5030707;28;19925;-79
2023/04/20 18:56:35;;;;;;;;;;;;;;;;;;5028886;28;19944;-78
2023/04/20 18:59:12;;;;;;;;;;;;;;;;;;5006870;28;19925;-78
2023/04/20 19:01:44;;;;;;;;;;;;;;;;;;5024891;28;19925;-78
2023/04/20 19:04:11;;;;;;;;;;;;;;;;;;5035521;28;19926;-79
2023/04/20 19:06:41;;;;;;;;;;;;;;;;;;5019211;28;19925;-79
2023/04/20 19:11:57;;;;;;;;;;;;;;;;;;5023731;28;19929;-78
2023/04/20 19:14:25;;;;;;;;;;;;;;;;;;5050963;28;19925;-80
2023/04/20 19:17:02;;;;;;;;;;;;;;;;;;5016284;28;19925;-80
2023/04/20 19:19:30;;;;;;;;;;;;;;;;;;5023780;28;19936;-79
2023/04/20 19:22:02;;;;;;;;;;;;;;;;;;5023673;28;19932;-79
2023/04/20 19:24:44;;;;;;;;;;;;;;;;;;5025129;28;20321;-79
2023/04/20 19:27:20;;;;;;;;;;;;;;;;;;5026767;28;19936;-78
2023/04/20 19:35:13;;;;;;;;;;;;;;;;;;5035584;28;20391;-80
2023/04/20 19:40:26;;;;;;;;;;;;;;;;;;5014039;28;19932;-80
2023/04/20 19:42:56;;;;;;;;;;;;;;;;;;5032200;28;19932;-80
2023/04/20 19:45:25;;;;;;;;;;;;;;;;;;5026370;28;19925;-79
2023/04/20 19:47:52;;;;;;;;;;;;;;;;;;5046052;28;19926;-79
2023/04/20 19:50:20;;;;;;;;;;;;;;;;;;5025884;28;20333;-77
2023/04/20 19:52:47;;;;;;;;;;;;;;;;;;5031993;28;19925;-78
2023/04/20 19:58:07;;;;;;;;;;;;;;;;;;5014459;28;20279;-78
2023/04/20 20:00:38;;;;;;;;;;;;;;;;;;5032247;28;19947;-78
2023/04/20 20:03:07;;;;;;;;;;;;;;;;;;4996866;28;19933;-78
2023/04/20 20:05:50;;;;;;;;;;;;;;;;;;5028421;28;19925;-78
2023/04/20 20:08:17;;;;;;;;;;;;;;;;;;5026766;28;19932;-78
2023/04/20 20:13:32;;;;;;;;;;;;;;;;;;5020315;28;19929;-78
2023/04/20 20:16:00;;;;;;;;;;;;;;;;;;5020812;28;19929;-79
2023/04/20 20:18:27;;;;;;;;;;;;;;;;;;4997482;28;19925;-79
2023/04/20 20:20:56;;;;;;;;;;;;;;;;;;5022947;28;19949;-79
